createdAt,value
2023-11-01T00:00:30.755Z,84.70
2023-11-01T00:02:58.383Z,84.70
2023-11-01T00:05:25.523Z,84.60
2023-11-01T00:07:52.494Z,84.60
2023-11-01T00:10:19.900Z,84.50
2023-11-01T00:12:47.000Z,84.50
2023-11-01T00:15:14.437Z,84.50
2023-11-01T00:17:42.137Z,84.50
2023-11-01T00:20:10.343Z,84.40
2023-11-01T00:22:37.307Z,84.40
2023-11-01T00:25:04.502Z,84.40
2023-11-01T00:27:33.436Z,84.50
2023-11-01T00:30:03.711Z,84.60
2023-11-01T00:32:30.715Z,84.50
2023-11-01T00:34:57.858Z,84.40
2023-11-01T00:37:24.822Z,84.30
2023-11-01T00:39:51.999Z,84.30
2023-11-01T00:42:19.573Z,84.30
2023-11-01T00:44:47.035Z,84.30
2023-11-01T00:47:14.028Z,84.30
2023-11-01T00:49:40.949Z,84.30
2023-11-01T00:52:07.890Z,84.30
2023-11-01T00:54:35.142Z,84.30
2023-11-01T00:57:02.314Z,84.30
2023-11-01T00:59:29.347Z,84.30
2023-11-01T01:01:56.511Z,84.30
2023-11-01T01:04:23.641Z,84.20
2023-11-01T01:06:50.497Z,84.20
2023-11-01T01:09:17.821Z,84.30
2023-11-01T01:11:45.054Z,84.30
2023-11-01T01:14:12.065Z,84.30
2023-11-01T01:16:39.181Z,84.40
2023-11-01T01:19:06.224Z,84.50
2023-11-01T01:21:33.324Z,84.50
2023-11-01T01:24:00.344Z,84.50
2023-11-01T01:26:27.462Z,84.50
2023-11-01T01:28:54.436Z,84.50
2023-11-01T01:31:21.468Z,84.40
2023-11-01T01:33:48.704Z,84.50
2023-11-01T01:36:15.573Z,84.60
2023-11-01T01:38:42.703Z,84.50
2023-11-01T01:41:09.974Z,84.60
2023-11-01T01:43:37.114Z,84.60
2023-11-01T01:46:31.416Z,84.60
2023-11-01T01:48:59.826Z,84.60
2023-11-01T01:51:28.393Z,84.70
2023-11-01T01:53:56.899Z,84.60
2023-11-01T01:56:25.807Z,84.60
2023-11-01T01:58:53.372Z,84.60
2023-11-01T02:01:32.409Z,84.60
2023-11-01T02:04:06.002Z,84.50
2023-11-01T02:06:33.296Z,84.60
2023-11-01T02:09:00.390Z,84.70
2023-11-01T02:11:27.578Z,84.70
2023-11-01T02:13:54.520Z,84.80
2023-11-01T02:16:21.453Z,84.80
2023-11-01T02:21:15.584Z,84.80
2023-11-01T02:23:44.701Z,84.80
2023-11-01T02:26:12.146Z,84.70
2023-11-01T02:28:39.067Z,84.80
2023-11-01T02:31:06.062Z,84.70
2023-11-01T02:33:33.019Z,84.80
2023-11-01T02:35:59.929Z,84.70
2023-11-01T02:38:26.968Z,84.70
2023-11-01T02:40:53.956Z,84.70
2023-11-01T02:43:20.965Z,84.70
2023-11-01T02:45:48.012Z,84.60
2023-11-01T02:48:15.187Z,84.60
2023-11-01T02:50:42.253Z,84.60
2023-11-01T02:53:09.667Z,84.60
2023-11-01T02:55:36.672Z,84.60
2023-11-01T02:58:04.492Z,84.50
2023-11-01T03:00:31.923Z,84.60
2023-11-01T03:02:59.076Z,84.50
2023-11-01T03:05:28.280Z,84.60
2023-11-01T03:07:55.407Z,84.60
2023-11-01T03:10:22.433Z,84.60
2023-11-01T03:12:49.488Z,84.50
2023-11-01T03:15:16.454Z,84.60
2023-11-01T03:17:43.887Z,84.60
2023-11-01T03:20:12.567Z,84.60
2023-11-01T03:22:40.578Z,84.60
2023-11-01T03:25:09.805Z,84.50
2023-11-01T03:27:37.156Z,84.50
2023-11-01T03:30:04.402Z,84.60
2023-11-01T03:32:31.542Z,84.60
2023-11-01T03:34:59.669Z,84.50
2023-11-01T03:37:27.045Z,84.60
2023-11-01T03:39:54.175Z,84.60
2023-11-01T03:42:22.513Z,84.60
2023-11-01T03:44:52.333Z,84.60
2023-11-01T03:47:19.460Z,84.70
2023-11-01T03:49:46.446Z,84.70
2023-11-01T03:52:13.414Z,84.50
2023-11-01T03:54:40.433Z,84.60
2023-11-01T03:57:07.811Z,84.60
2023-11-01T03:59:35.639Z,84.70
2023-11-01T04:02:03.590Z,84.60
2023-11-01T04:04:30.605Z,84.50
2023-11-01T04:06:57.662Z,84.60
2023-11-01T04:09:25.319Z,84.60
2023-11-01T04:11:52.834Z,84.70
2023-11-01T04:14:19.908Z,84.80
2023-11-01T04:16:47.681Z,84.80
2023-11-01T04:19:14.891Z,84.80
2023-11-01T04:21:41.812Z,84.70
2023-11-01T04:24:11.374Z,84.90
2023-11-01T04:26:38.630Z,84.90
2023-11-01T04:29:05.897Z,84.80
2023-11-01T04:31:33.025Z,84.90
2023-11-01T04:33:59.954Z,84.80
2023-11-01T04:36:27.234Z,84.80
2023-11-01T04:38:54.686Z,84.90
2023-11-01T04:41:22.263Z,84.80
2023-11-01T04:43:49.267Z,84.80
2023-11-01T04:46:16.282Z,85.00
2023-11-01T04:48:43.869Z,85.10
2023-11-01T04:51:10.980Z,85.10
2023-11-01T04:53:38.937Z,85.10
2023-11-01T04:56:07.309Z,85.20
2023-11-01T04:58:36.303Z,85.30
2023-11-01T05:01:06.405Z,85.30
2023-11-01T05:03:35.155Z,85.30
2023-11-01T05:06:02.079Z,85.30
2023-11-01T05:08:29.493Z,85.30
2023-11-01T05:10:56.624Z,85.30
2023-11-01T05:13:23.492Z,85.30
2023-11-01T05:15:50.558Z,85.40
2023-11-01T05:18:17.513Z,85.50
2023-11-01T05:20:44.612Z,85.50
2023-11-01T05:23:11.680Z,85.60
2023-11-01T05:25:38.716Z,85.60
2023-11-01T05:28:05.711Z,85.80
2023-11-01T05:30:32.692Z,85.80
2023-11-01T05:32:59.642Z,85.90
2023-11-01T05:35:26.616Z,85.90
2023-11-01T05:37:53.643Z,86.00
2023-11-01T05:40:20.532Z,86.00
2023-11-01T05:42:48.140Z,86.00
2023-11-01T05:45:19.034Z,86.00
2023-11-01T05:47:52.457Z,86.00
2023-11-01T05:50:25.500Z,86.10
2023-11-01T05:52:54.872Z,86.00
2023-11-01T05:55:29.833Z,86.10
2023-11-01T05:58:08.770Z,86.00
2023-11-01T06:00:39.978Z,86.10
2023-11-01T06:03:08.353Z,86.10
2023-11-01T06:05:40.409Z,86.20
2023-11-01T06:08:10.284Z,86.10
2023-11-01T06:10:38.031Z,86.10
2023-11-01T06:13:11.283Z,86.00
2023-11-01T06:15:38.983Z,86.10
2023-11-01T06:18:06.447Z,86.00
2023-11-01T06:20:37.593Z,86.00
2023-11-01T06:23:05.790Z,86.00
2023-11-01T06:25:33.372Z,86.00
2023-11-01T06:28:01.029Z,86.00
2023-11-01T06:30:28.120Z,86.00
2023-11-01T06:32:55.657Z,86.00
2023-11-01T06:35:23.301Z,86.00
2023-11-01T06:37:50.189Z,85.80
2023-11-01T06:40:17.217Z,85.80
2023-11-01T06:42:44.333Z,85.80
2023-11-01T06:45:12.814Z,85.70
2023-11-01T06:47:40.491Z,85.70
2023-11-01T06:50:08.047Z,85.70
2023-11-01T06:52:35.095Z,85.70
2023-11-01T06:55:01.966Z,85.70
2023-11-01T06:57:29.011Z,85.60
2023-11-01T06:59:55.924Z,85.60
2023-11-01T07:02:22.900Z,85.60
2023-11-01T07:04:50.265Z,85.70
2023-11-01T07:07:19.329Z,85.60
2023-11-01T07:09:47.479Z,85.50
2023-11-01T07:12:14.891Z,85.60
2023-11-01T07:14:41.741Z,85.50
2023-11-01T07:17:08.705Z,85.50
2023-11-01T07:19:35.763Z,85.40
2023-11-01T07:22:02.602Z,85.50
2023-11-01T07:24:29.529Z,85.30
2023-11-01T07:26:56.691Z,85.40
2023-11-01T07:29:23.599Z,85.20
2023-11-01T07:31:50.470Z,85.30
2023-11-01T07:34:17.500Z,85.40
2023-11-01T07:36:44.343Z,85.30
2023-11-01T07:39:11.315Z,85.30
2023-11-01T07:41:40.084Z,85.20
2023-11-01T07:44:07.038Z,85.30
2023-11-01T07:46:36.925Z,85.10
2023-11-01T07:49:04.330Z,85.00
2023-11-01T07:51:31.250Z,85.20
2023-11-01T07:53:58.129Z,85.10
2023-11-01T07:56:25.443Z,85.10
2023-11-01T07:58:52.336Z,85.20
2023-11-01T08:01:20.001Z,84.90
2023-11-01T08:03:47.202Z,84.90
2023-11-01T08:06:14.212Z,84.90
2023-11-01T08:08:41.170Z,84.80
2023-11-01T08:11:08.627Z,84.70
2023-11-01T08:13:38.348Z,84.60
2023-11-01T08:16:05.959Z,84.70
2023-11-01T08:18:33.192Z,84.70
2023-11-01T08:21:00.906Z,84.70
2023-11-01T08:23:27.894Z,84.60
2023-11-01T08:25:54.936Z,84.60
2023-11-01T08:28:21.794Z,84.60
2023-11-01T08:30:48.743Z,84.70
2023-11-01T08:33:15.838Z,84.40
2023-11-01T08:35:42.785Z,84.30
2023-11-01T08:38:09.967Z,84.10
2023-11-01T08:40:40.030Z,84.20
2023-11-01T08:43:07.014Z,84.00
2023-11-01T08:45:34.049Z,83.90
2023-11-01T08:48:01.500Z,83.80
2023-11-01T08:50:28.756Z,84.00
2023-11-01T08:52:55.607Z,83.90
2023-11-01T08:55:23.440Z,84.00
2023-11-01T08:57:50.567Z,84.00
2023-11-01T09:00:17.868Z,83.90
2023-11-01T09:02:44.897Z,84.10
2023-11-01T09:05:11.947Z,83.70
2023-11-01T09:07:40.835Z,83.80
2023-11-01T09:10:11.087Z,83.60
2023-11-01T09:12:38.340Z,83.40
2023-11-01T09:15:06.384Z,82.80
2023-11-01T09:17:34.064Z,82.90
2023-11-01T09:20:02.022Z,82.50
2023-11-01T09:22:30.658Z,82.90
2023-11-01T09:24:57.556Z,82.80
2023-11-01T09:27:24.552Z,82.90
2023-11-01T09:29:51.717Z,82.50
2023-11-01T09:32:18.804Z,82.90
2023-11-01T09:34:46.048Z,82.90
2023-11-01T09:37:13.152Z,82.50
2023-11-01T09:39:40.901Z,82.60
2023-11-01T09:42:16.108Z,82.70
2023-11-01T09:44:44.202Z,82.60
2023-11-01T09:47:12.309Z,82.50
2023-11-01T09:49:39.870Z,82.40
2023-11-01T09:52:08.005Z,82.40
2023-11-01T09:54:34.845Z,81.90
2023-11-01T09:57:02.531Z,81.90
2023-11-01T09:59:29.834Z,81.50
2023-11-01T10:01:56.988Z,81.80
2023-11-01T10:04:24.649Z,81.40
2023-11-01T10:06:51.796Z,81.60
2023-11-01T10:09:19.002Z,81.80
2023-11-01T10:11:48.846Z,81.70
2023-11-01T10:14:30.795Z,81.60
2023-11-01T10:16:58.919Z,80.90
2023-11-01T10:19:26.825Z,81.30
2023-11-01T10:21:54.800Z,80.60
2023-11-01T10:24:24.707Z,80.50
2023-11-01T10:26:56.217Z,80.80
2023-11-01T10:29:28.645Z,81.20
2023-11-01T10:32:01.564Z,81.20
2023-11-01T10:34:32.884Z,81.00
2023-11-01T10:37:01.340Z,80.50
2023-11-01T10:39:29.358Z,80.10
2023-11-01T10:41:56.774Z,80.40
2023-11-01T10:44:24.675Z,80.10
2023-11-01T10:46:52.082Z,80.10
2023-11-01T10:49:19.986Z,80.10
2023-11-01T10:51:46.929Z,79.80
2023-11-01T10:54:14.260Z,79.90
2023-11-01T10:56:41.864Z,79.90
2023-11-01T10:59:15.182Z,79.60
2023-11-01T11:01:59.112Z,79.50
2023-11-01T11:04:35.750Z,79.70
2023-11-01T11:07:33.349Z,79.70
2023-11-01T11:10:29.788Z,79.70
2023-11-01T11:13:18.334Z,79.60
2023-11-01T11:15:49.016Z,79.90
2023-11-01T11:18:19.754Z,79.50
2023-11-01T11:20:46.778Z,79.80
2023-11-01T11:23:15.955Z,80.40
2023-11-01T11:25:48.505Z,80.00
2023-11-01T11:28:49.208Z,79.70
2023-11-01T11:31:24.352Z,79.20
2023-11-01T11:33:53.501Z,79.20
2023-11-01T11:36:25.461Z,79.20
2023-11-01T11:39:07.121Z,79.00
2023-11-01T11:41:40.028Z,78.80
2023-11-01T11:44:24.020Z,79.00
2023-11-01T11:46:54.662Z,79.40
2023-11-01T11:49:29.468Z,79.10
2023-11-01T11:52:05.879Z,79.50
2023-11-01T11:54:34.115Z,79.40
2023-11-01T11:57:08.193Z,79.40
2023-11-01T11:59:36.995Z,78.40
2023-11-01T12:02:22.276Z,77.20
2023-11-01T12:05:04.235Z,76.80
2023-11-01T12:07:31.762Z,76.70
2023-11-01T12:09:59.431Z,76.70
2023-11-01T12:12:26.513Z,76.60
2023-11-01T12:15:03.688Z,77.30
2023-11-01T12:17:31.075Z,76.40
2023-11-01T12:19:58.901Z,76.80
2023-11-01T12:22:26.615Z,77.30
2023-11-01T12:24:56.590Z,76.50
2023-11-01T12:27:31.582Z,76.30
2023-11-01T12:29:58.894Z,75.90
2023-11-01T12:32:26.181Z,76.30
2023-11-01T12:34:53.712Z,75.50
2023-11-01T12:37:26.043Z,75.50
2023-11-01T12:40:15.813Z,75.50
2023-11-01T12:42:48.091Z,74.50
2023-11-01T12:45:16.452Z,74.20
2023-11-01T12:47:47.464Z,74.60
2023-11-01T12:50:22.368Z,74.50
2023-11-01T12:52:50.044Z,74.40
2023-11-01T12:55:19.031Z,75.40
2023-11-01T12:57:48.981Z,75.70
2023-11-01T13:00:17.813Z,74.90
2023-11-01T13:02:45.176Z,73.70
2023-11-01T13:05:13.125Z,73.40
2023-11-01T13:07:41.007Z,73.20
2023-11-01T13:10:10.857Z,72.10
2023-11-01T13:12:40.512Z,71.90
2023-11-01T13:15:09.951Z,72.30
2023-11-01T13:17:37.184Z,72.90
2023-11-01T13:20:04.658Z,72.70
2023-11-01T13:22:34.725Z,72.80
2023-11-01T13:25:01.926Z,72.60
2023-11-01T13:27:28.980Z,73.60
2023-11-01T13:29:55.935Z,73.10
2023-11-01T13:32:22.819Z,73.20
2023-11-01T13:34:50.809Z,72.80
2023-11-01T13:37:17.759Z,72.10
2023-11-01T13:39:44.770Z,71.60
2023-11-01T13:42:15.779Z,71.80
2023-11-01T13:44:44.555Z,72.00
2023-11-01T13:47:12.369Z,72.20
2023-11-01T13:49:41.380Z,72.20
2023-11-01T13:52:08.908Z,71.90
2023-11-01T13:54:36.140Z,71.80
2023-11-01T13:57:04.750Z,71.60
2023-11-01T13:59:31.998Z,71.70
2023-11-01T14:02:00.117Z,71.20
2023-11-01T14:04:27.607Z,71.50
2023-11-01T14:06:54.656Z,71.00
2023-11-01T14:09:22.171Z,71.30
2023-11-01T14:11:54.181Z,71.40
2023-11-01T14:14:24.949Z,71.20
2023-11-01T14:16:52.528Z,71.30
2023-11-01T14:19:19.945Z,71.50
2023-11-01T14:21:47.842Z,71.20
2023-11-01T14:24:18.107Z,71.10
2023-11-01T14:26:46.587Z,69.90
2023-11-01T14:29:13.570Z,70.80
2023-11-01T14:31:41.143Z,71.10
2023-11-01T14:34:08.633Z,70.90
2023-11-01T14:36:35.904Z,71.20
2023-11-01T14:39:04.162Z,71.10
2023-11-01T14:41:32.198Z,70.90
2023-11-01T14:44:00.908Z,71.30
2023-11-01T14:46:28.962Z,71.10
2023-11-01T14:48:58.961Z,71.30
2023-11-01T14:51:25.884Z,71.30
2023-11-01T14:53:53.195Z,71.20
2023-11-01T14:56:20.213Z,71.10
2023-11-01T14:58:50.378Z,71.20
2023-11-01T15:01:17.424Z,71.30
2023-11-01T15:03:45.828Z,71.60
2023-11-01T15:06:13.371Z,72.00
2023-11-01T15:08:40.942Z,72.40
2023-11-01T15:11:11.116Z,72.70
2023-11-01T15:13:38.238Z,73.00
2023-11-01T15:16:05.824Z,73.10
2023-11-01T15:18:33.229Z,73.20
2023-11-01T15:21:00.433Z,73.50
2023-11-01T15:23:27.336Z,73.50
2023-11-01T15:25:54.389Z,73.70
2023-11-01T15:28:21.314Z,73.80
2023-11-01T15:30:48.186Z,74.10
2023-11-01T15:33:15.629Z,74.30
2023-11-01T15:35:43.761Z,74.60
2023-11-01T15:38:10.698Z,74.90
2023-11-01T15:40:37.671Z,74.90
2023-11-01T15:43:04.548Z,75.00
2023-11-01T15:45:31.427Z,75.10
2023-11-01T15:47:58.753Z,75.10
2023-11-01T15:50:25.800Z,75.20
2023-11-01T15:52:54.230Z,75.20
2023-11-01T15:55:21.852Z,75.20
2023-11-01T15:57:50.108Z,75.30
2023-11-01T16:00:22.416Z,75.30
2023-11-01T16:02:50.020Z,75.50
2023-11-01T16:05:17.266Z,75.50
2023-11-01T16:07:46.065Z,75.20
2023-11-01T16:10:14.622Z,75.20
2023-11-01T16:12:41.722Z,75.10
2023-11-01T16:15:11.854Z,75.10
2023-11-01T16:17:39.172Z,75.00
2023-11-01T16:20:07.634Z,75.00
2023-11-01T16:22:34.528Z,74.90
2023-11-01T16:25:01.865Z,74.90
2023-11-01T16:27:31.950Z,74.60
2023-11-01T16:29:59.003Z,74.50
2023-11-01T16:32:26.966Z,74.70
2023-11-01T16:34:58.325Z,74.60
2023-11-01T16:37:25.596Z,74.50
2023-11-01T16:39:54.046Z,74.10
2023-11-01T16:42:20.984Z,74.20
2023-11-01T16:44:48.143Z,73.80
2023-11-01T16:47:15.854Z,73.90
2023-11-01T16:49:44.934Z,73.70
2023-11-01T16:52:12.312Z,73.70
2023-11-01T16:54:39.538Z,73.70
2023-11-01T16:57:06.509Z,73.90
2023-11-01T16:59:33.473Z,73.90
2023-11-01T17:02:03.094Z,74.10
2023-11-01T17:04:30.301Z,74.20
2023-11-01T17:06:58.060Z,74.20
2023-11-01T17:09:26.518Z,74.30
2023-11-01T17:12:01.691Z,74.30
2023-11-01T17:14:32.260Z,74.40
2023-11-01T17:16:59.305Z,74.60
2023-11-01T17:19:26.254Z,74.70
2023-11-01T17:21:57.309Z,74.70
2023-11-01T17:24:26.817Z,74.80
2023-11-01T17:27:01.203Z,74.90
2023-11-01T17:29:33.304Z,74.80
2023-11-01T17:32:00.521Z,74.90
2023-11-01T17:34:32.713Z,75.00
2023-11-01T17:37:02.905Z,75.10
2023-11-01T17:39:40.182Z,75.20
2023-11-01T17:42:12.990Z,75.30
2023-11-01T17:44:42.000Z,75.50
2023-11-01T17:47:22.900Z,75.60
2023-11-01T17:49:53.410Z,75.80
2023-11-01T17:52:35.502Z,75.90
2023-11-01T17:55:04.811Z,76.00
2023-11-01T17:57:33.531Z,76.00
2023-11-01T18:00:02.094Z,75.90
2023-11-01T18:02:57.309Z,75.80
2023-11-01T18:05:32.442Z,75.90
2023-11-01T18:07:59.561Z,76.00
2023-11-01T18:10:26.531Z,76.20
2023-11-01T18:12:55.557Z,76.20
2023-11-01T18:15:29.102Z,76.30
2023-11-01T18:17:56.097Z,76.30
2023-11-01T18:20:34.022Z,76.40
2023-11-01T18:23:00.956Z,76.50
2023-11-01T18:25:30.886Z,76.60
2023-11-01T18:28:01.904Z,76.60
2023-11-01T18:30:28.783Z,76.60
2023-11-01T18:32:56.290Z,76.60
2023-11-01T18:35:30.848Z,76.60
2023-11-01T18:37:57.859Z,76.60
2023-11-01T18:40:25.707Z,76.70
2023-11-01T18:42:58.803Z,76.70
2023-11-01T18:45:25.643Z,76.80
2023-11-01T18:47:55.974Z,76.80
2023-11-01T18:50:22.903Z,76.80
2023-11-01T18:52:49.799Z,76.90
2023-11-01T18:55:35.710Z,77.00
2023-11-01T18:58:03.797Z,77.00
2023-11-01T19:00:30.826Z,77.10
2023-11-01T19:03:04.415Z,77.10
2023-11-01T19:05:33.459Z,77.20
2023-11-01T19:08:01.129Z,77.10
2023-11-01T19:10:36.174Z,77.20
2023-11-01T19:13:04.647Z,77.20
2023-11-01T19:15:38.443Z,77.20
2023-11-01T19:18:14.606Z,77.30
2023-11-01T19:20:45.173Z,77.30
2023-11-01T19:23:13.398Z,77.30
2023-11-01T19:25:40.335Z,77.20
2023-11-01T19:28:07.381Z,77.20
2023-11-01T19:30:34.520Z,77.20
2023-11-01T19:33:01.562Z,77.30
2023-11-01T19:35:28.768Z,77.30
2023-11-01T19:37:56.397Z,77.30
2023-11-01T19:40:25.016Z,77.30
2023-11-01T19:42:52.647Z,77.40
2023-11-01T19:45:19.755Z,77.40
2023-11-01T19:47:47.218Z,77.40
2023-11-01T19:50:23.914Z,77.40
2023-11-01T19:52:51.166Z,77.50
2023-11-01T19:55:18.649Z,77.60
2023-11-01T19:57:48.826Z,77.60
2023-11-01T20:00:17.331Z,77.60
2023-11-01T20:02:44.881Z,77.60
2023-11-01T20:05:12.736Z,77.60
2023-11-01T20:07:40.032Z,77.70
2023-11-01T20:10:11.826Z,77.70
2023-11-01T20:12:39.862Z,77.70
2023-11-01T20:15:10.166Z,77.70
2023-11-01T20:17:37.858Z,77.70
2023-11-01T20:20:08.953Z,77.80
2023-11-01T20:22:43.629Z,77.80
2023-11-01T20:25:14.751Z,77.70
2023-11-01T20:27:43.382Z,77.70
2023-11-01T20:30:10.559Z,77.60
2023-11-01T20:32:37.602Z,77.60
2023-11-01T20:35:05.223Z,77.50
2023-11-01T20:37:32.413Z,77.50
2023-11-01T20:40:00.180Z,77.50
2023-11-01T20:42:27.849Z,77.50
2023-11-01T20:45:04.276Z,77.50
2023-11-01T20:47:31.518Z,77.50
2023-11-01T20:49:58.524Z,77.50
2023-11-01T20:52:25.417Z,77.60
2023-11-01T20:54:55.683Z,77.70
2023-11-01T20:57:25.441Z,77.60
2023-11-01T20:59:52.488Z,77.60
2023-11-01T21:02:19.663Z,77.60
2023-11-01T21:04:46.682Z,77.60
2023-11-01T21:07:13.531Z,77.50
2023-11-01T21:09:40.789Z,77.60
2023-11-01T21:12:08.280Z,77.60
2023-11-01T21:14:38.242Z,77.60
2023-11-01T21:17:07.543Z,77.60
2023-11-01T21:19:34.823Z,77.60
2023-11-01T21:22:02.513Z,77.60
2023-11-01T21:24:29.875Z,77.60
2023-11-01T21:26:58.237Z,77.60
2023-11-01T21:29:25.286Z,77.60
2023-11-01T21:31:52.192Z,77.50
2023-11-01T21:34:19.366Z,77.60
2023-11-01T21:36:47.118Z,77.60
2023-11-01T21:39:15.616Z,77.60
2023-11-01T21:41:44.909Z,77.60
2023-11-01T21:44:12.895Z,77.60
2023-11-01T21:46:40.189Z,77.60
2023-11-01T21:49:18.874Z,77.60
2023-11-01T21:51:45.880Z,77.70
2023-11-01T21:54:25.650Z,77.60
2023-11-01T21:56:53.884Z,77.60
2023-11-01T21:59:21.580Z,77.50
2023-11-01T22:01:49.286Z,77.40
2023-11-01T22:04:21.887Z,77.50
2023-11-01T22:06:51.433Z,77.50
2023-11-01T22:09:20.070Z,77.40
2023-11-01T22:11:49.361Z,77.50
2023-11-01T22:14:39.681Z,77.40
2023-11-01T22:17:11.710Z,77.40
2023-11-01T22:19:43.069Z,77.40
2023-11-01T22:22:19.501Z,77.40
2023-11-01T22:24:46.539Z,77.40
2023-11-01T22:27:17.330Z,77.40
2023-11-01T22:29:50.239Z,77.40
2023-11-01T22:32:20.049Z,77.40
2023-11-01T22:34:51.518Z,77.40
2023-11-01T22:37:23.257Z,77.40
2023-11-01T22:39:52.552Z,77.50
2023-11-01T22:42:32.662Z,77.50
2023-11-01T22:45:24.741Z,77.50
2023-11-01T22:47:52.220Z,77.50
2023-11-01T22:50:19.298Z,77.60
2023-11-01T22:52:46.450Z,77.70
2023-11-01T22:55:13.603Z,77.70
2023-11-01T22:57:40.601Z,77.70
2023-11-01T23:03:09.982Z,77.80
2023-11-01T23:05:38.438Z,77.80
2023-11-01T23:08:05.773Z,77.80
2023-11-01T23:10:34.206Z,77.80
2023-11-01T23:13:02.016Z,77.80
2023-11-01T23:15:29.444Z,77.80
2023-11-01T23:17:58.271Z,77.80
2023-11-01T23:20:25.472Z,77.90
2023-11-01T23:22:53.814Z,78.00
2023-11-01T23:25:31.939Z,78.00
2023-11-01T23:28:04.789Z,78.20
2023-11-01T23:30:53.209Z,78.20
2023-11-01T23:33:33.568Z,78.30
2023-11-01T23:36:02.373Z,78.30
2023-11-01T23:38:35.045Z,78.40
2023-11-01T23:41:03.084Z,78.50
2023-11-01T23:43:34.019Z,78.50
2023-11-01T23:46:11.212Z,78.50
2023-11-01T23:48:39.491Z,78.60
2023-11-01T23:51:08.769Z,78.70
2023-11-01T23:53:36.627Z,78.70
2023-11-01T23:56:05.387Z,78.70
2023-11-01T23:58:37.786Z,78.80
